sensor_id;sensor_type;location;lat;lon;timestamp;P1;durP1;ratioP1;P2;durP2;ratioP2
5608;SDS011;2826;51.354;9.588;2023-05-07T00:01:37;32.30;;;21.13;;
5608;SDS011;2826;51.354;9.588;2023-05-07T00:04:04;28.73;;;19.87;;
5608;SDS011;2826;51.354;9.588;2023-05-07T00:06:32;33.93;;;19.80;;
5608;SDS011;2826;51.354;9.588;2023-05-07T00:08:59;33.00;;;20.60;;
5608;SDS011;2826;51.354;9.588;2023-05-07T00:11:26;36.30;;;22.43;;
5608;SDS011;2826;51.354;9.588;2023-05-07T00:13:53;31.93;;;20.70;;
5608;SDS011;2826;51.354;9.588;2023-05-07T00:16:21;30.97;;;20.63;;
5608;SDS011;2826;51.354;9.588;2023-05-07T00:18:48;28.93;;;20.90;;
5608;SDS011;2826;51.354;9.588;2023-05-07T00:21:14;43.33;;;22.47;;
5608;SDS011;2826;51.354;9.588;2023-05-07T00:23:41;31.23;;;20.17;;
5608;SDS011;2826;51.354;9.588;2023-05-07T00:26:07;31.80;;;20.87;;
5608;SDS011;2826;51.354;9.588;2023-05-07T00:28:34;31.47;;;20.23;;
5608;SDS011;2826;51.354;9.588;2023-05-07T00:31:01;28.67;;;19.93;;
5608;SDS011;2826;51.354;9.588;2023-05-07T00:33:29;32.70;;;21.27;;
5608;SDS011;2826;51.354;9.588;2023-05-07T00:35:55;34.57;;;20.13;;
5608;SDS011;2826;51.354;9.588;2023-05-07T00:38:22;34.20;;;21.07;;
5608;SDS011;2826;51.354;9.588;2023-05-07T00:40:48;30.00;;;20.70;;
5608;SDS011;2826;51.354;9.588;2023-05-07T00:43:16;36.80;;;22.13;;
5608;SDS011;2826;51.354;9.588;2023-05-07T00:45:43;37.50;;;21.53;;
5608;SDS011;2826;51.354;9.588;2023-05-07T00:48:10;34.47;;;20.87;;
5608;SDS011;2826;51.354;9.588;2023-05-07T00:50:38;34.10;;;21.13;;
5608;SDS011;2826;51.354;9.588;2023-05-07T00:53:05;32.07;;;21.53;;
5608;SDS011;2826;51.354;9.588;2023-05-07T00:55:32;35.30;;;21.90;;
5608;SDS011;2826;51.354;9.588;2023-05-07T00:57:59;31.90;;;20.80;;
5608;SDS011;2826;51.354;9.588;2023-05-07T01:00:25;32.20;;;21.83;;
5608;SDS011;2826;51.354;9.588;2023-05-07T01:02:52;35.43;;;21.30;;
5608;SDS011;2826;51.354;9.588;2023-05-07T01:05:19;36.57;;;21.13;;
5608;SDS011;2826;51.354;9.588;2023-05-07T01:07:49;30.17;;;20.63;;
5608;SDS011;2826;51.354;9.588;2023-05-07T01:10:18;37.50;;;22.07;;
5608;SDS011;2826;51.354;9.588;2023-05-07T01:12:45;36.37;;;21.47;;
5608;SDS011;2826;51.354;9.588;2023-05-07T01:15:14;33.67;;;21.77;;
5608;SDS011;2826;51.354;9.588;2023-05-07T01:17:41;33.50;;;21.87;;
5608;SDS011;2826;51.354;9.588;2023-05-07T01:20:17;37.77;;;21.87;;
5608;SDS011;2826;51.354;9.588;2023-05-07T01:22:47;37.30;;;22.07;;
5608;SDS011;2826;51.354;9.588;2023-05-07T01:25:15;30.10;;;20.90;;
5608;SDS011;2826;51.354;9.588;2023-05-07T01:27:46;32.30;;;20.10;;
5608;SDS011;2826;51.354;9.588;2023-05-07T01:30:13;36.60;;;22.60;;
5608;SDS011;2826;51.354;9.588;2023-05-07T01:32:40;32.87;;;20.77;;
5608;SDS011;2826;51.354;9.588;2023-05-07T01:35:11;32.07;;;21.10;;
5608;SDS011;2826;51.354;9.588;2023-05-07T01:37:39;37.37;;;22.63;;
5608;SDS011;2826;51.354;9.588;2023-05-07T01:40:09;38.43;;;22.00;;
5608;SDS011;2826;51.354;9.588;2023-05-07T01:42:36;35.47;;;21.70;;
5608;SDS011;2826;51.354;9.588;2023-05-07T01:45:03;36.50;;;21.87;;
5608;SDS011;2826;51.354;9.588;2023-05-07T01:47:31;34.03;;;22.30;;
5608;SDS011;2826;51.354;9.588;2023-05-07T01:49:58;36.13;;;23.33;;
5608;SDS011;2826;51.354;9.588;2023-05-07T01:52:25;32.63;;;22.10;;
5608;SDS011;2826;51.354;9.588;2023-05-07T01:54:51;35.63;;;22.80;;
5608;SDS011;2826;51.354;9.588;2023-05-07T01:57:19;32.50;;;22.03;;
5608;SDS011;2826;51.354;9.588;2023-05-07T01:59:46;35.90;;;22.10;;
5608;SDS011;2826;51.354;9.588;2023-05-07T02:02:12;43.43;;;23.13;;
5608;SDS011;2826;51.354;9.588;2023-05-07T02:04:41;43.77;;;25.13;;
5608;SDS011;2826;51.354;9.588;2023-05-07T02:07:08;34.57;;;22.90;;
5608;SDS011;2826;51.354;9.588;2023-05-07T02:09:36;40.73;;;24.90;;
5608;SDS011;2826;51.354;9.588;2023-05-07T02:12:02;41.43;;;24.23;;
5608;SDS011;2826;51.354;9.588;2023-05-07T02:14:31;37.10;;;23.20;;
5608;SDS011;2826;51.354;9.588;2023-05-07T02:16:58;42.53;;;24.30;;
5608;SDS011;2826;51.354;9.588;2023-05-07T02:19:25;37.83;;;23.90;;
5608;SDS011;2826;51.354;9.588;2023-05-07T02:21:51;40.17;;;24.97;;
5608;SDS011;2826;51.354;9.588;2023-05-07T02:24:19;40.37;;;25.60;;
5608;SDS011;2826;51.354;9.588;2023-05-07T02:26:45;39.97;;;24.33;;
5608;SDS011;2826;51.354;9.588;2023-05-07T02:29:12;43.63;;;23.90;;
5608;SDS011;2826;51.354;9.588;2023-05-07T02:31:40;37.67;;;23.50;;
5608;SDS011;2826;51.354;9.588;2023-05-07T02:34:07;44.27;;;24.67;;
5608;SDS011;2826;51.354;9.588;2023-05-07T02:36:34;38.27;;;24.80;;
5608;SDS011;2826;51.354;9.588;2023-05-07T02:39:05;43.37;;;25.37;;
5608;SDS011;2826;51.354;9.588;2023-05-07T02:41:32;41.53;;;24.80;;
5608;SDS011;2826;51.354;9.588;2023-05-07T02:43:59;35.67;;;23.37;;
5608;SDS011;2826;51.354;9.588;2023-05-07T02:46:25;40.50;;;23.80;;
5608;SDS011;2826;51.354;9.588;2023-05-07T02:49:00;39.43;;;24.00;;
5608;SDS011;2826;51.354;9.588;2023-05-07T02:51:27;37.70;;;23.50;;
5608;SDS011;2826;51.354;9.588;2023-05-07T02:53:56;40.17;;;24.80;;
5608;SDS011;2826;51.354;9.588;2023-05-07T02:56:25;36.97;;;23.20;;
5608;SDS011;2826;51.354;9.588;2023-05-07T02:58:52;40.77;;;24.57;;
5608;SDS011;2826;51.354;9.588;2023-05-07T03:01:21;41.90;;;24.30;;
5608;SDS011;2826;51.354;9.588;2023-05-07T03:04:09;40.67;;;24.53;;
5608;SDS011;2826;51.354;9.588;2023-05-07T03:06:36;39.07;;;24.40;;
5608;SDS011;2826;51.354;9.588;2023-05-07T03:09:03;40.13;;;25.03;;
5608;SDS011;2826;51.354;9.588;2023-05-07T03:11:29;38.53;;;23.53;;
5608;SDS011;2826;51.354;9.588;2023-05-07T03:13:56;40.37;;;24.93;;
5608;SDS011;2826;51.354;9.588;2023-05-07T03:16:23;39.03;;;24.03;;
5608;SDS011;2826;51.354;9.588;2023-05-07T03:18:50;35.60;;;22.00;;
5608;SDS011;2826;51.354;9.588;2023-05-07T03:21:18;44.10;;;24.50;;
5608;SDS011;2826;51.354;9.588;2023-05-07T03:23:44;41.77;;;23.90;;
5608;SDS011;2826;51.354;9.588;2023-05-07T03:26:12;38.33;;;24.60;;
5608;SDS011;2826;51.354;9.588;2023-05-07T03:28:39;37.77;;;24.33;;
5608;SDS011;2826;51.354;9.588;2023-05-07T03:31:10;40.00;;;23.00;;
5608;SDS011;2826;51.354;9.588;2023-05-07T03:33:39;36.73;;;23.60;;
5608;SDS011;2826;51.354;9.588;2023-05-07T03:36:17;36.13;;;22.20;;
5608;SDS011;2826;51.354;9.588;2023-05-07T03:38:44;36.47;;;23.03;;
5608;SDS011;2826;51.354;9.588;2023-05-07T03:41:11;43.27;;;23.27;;
5608;SDS011;2826;51.354;9.588;2023-05-07T03:43:38;39.50;;;23.03;;
5608;SDS011;2826;51.354;9.588;2023-05-07T03:46:08;38.07;;;23.40;;
5608;SDS011;2826;51.354;9.588;2023-05-07T03:48:35;34.30;;;22.50;;
5608;SDS011;2826;51.354;9.588;2023-05-07T03:51:01;40.40;;;22.83;;
5608;SDS011;2826;51.354;9.588;2023-05-07T03:53:33;37.90;;;22.60;;
5608;SDS011;2826;51.354;9.588;2023-05-07T03:56:00;40.67;;;23.90;;
5608;SDS011;2826;51.354;9.588;2023-05-07T03:58:29;35.13;;;22.80;;
5608;SDS011;2826;51.354;9.588;2023-05-07T04:01:00;40.10;;;21.23;;
5608;SDS011;2826;51.354;9.588;2023-05-07T04:03:27;37.50;;;22.53;;
5608;SDS011;2826;51.354;9.588;2023-05-07T04:05:57;41.40;;;23.00;;
5608;SDS011;2826;51.354;9.588;2023-05-07T04:08:23;33.93;;;20.80;;
5608;SDS011;2826;51.354;9.588;2023-05-07T04:10:55;36.70;;;21.53;;
5608;SDS011;2826;51.354;9.588;2023-05-07T04:13:24;33.50;;;19.80;;
5608;SDS011;2826;51.354;9.588;2023-05-07T04:15:51;34.83;;;20.43;;
5608;SDS011;2826;51.354;9.588;2023-05-07T04:18:19;33.57;;;19.70;;
5608;SDS011;2826;51.354;9.588;2023-05-07T04:20:48;32.83;;;19.27;;
5608;SDS011;2826;51.354;9.588;2023-05-07T04:23:15;32.47;;;18.30;;
5608;SDS011;2826;51.354;9.588;2023-05-07T04:25:42;30.50;;;18.40;;
5608;SDS011;2826;51.354;9.588;2023-05-07T04:28:19;31.30;;;18.07;;
5608;SDS011;2826;51.354;9.588;2023-05-07T04:30:46;27.87;;;17.57;;
5608;SDS011;2826;51.354;9.588;2023-05-07T04:33:13;25.00;;;17.17;;
5608;SDS011;2826;51.354;9.588;2023-05-07T04:35:42;29.10;;;17.37;;
5608;SDS011;2826;51.354;9.588;2023-05-07T04:38:08;25.43;;;16.40;;
5608;SDS011;2826;51.354;9.588;2023-05-07T04:40:36;24.50;;;16.00;;
5608;SDS011;2826;51.354;9.588;2023-05-07T04:43:03;23.57;;;15.30;;
5608;SDS011;2826;51.354;9.588;2023-05-07T04:45:38;23.60;;;14.80;;
5608;SDS011;2826;51.354;9.588;2023-05-07T04:48:07;24.30;;;14.50;;
5608;SDS011;2826;51.354;9.588;2023-05-07T04:50:34;21.70;;;14.20;;
5608;SDS011;2826;51.354;9.588;2023-05-07T04:53:02;22.37;;;14.83;;
5608;SDS011;2826;51.354;9.588;2023-05-07T04:55:29;22.20;;;14.80;;
5608;SDS011;2826;51.354;9.588;2023-05-07T04:57:55;22.80;;;14.50;;
5608;SDS011;2826;51.354;9.588;2023-05-07T05:00:23;22.80;;;13.43;;
5608;SDS011;2826;51.354;9.588;2023-05-07T05:02:53;21.43;;;13.63;;
5608;SDS011;2826;51.354;9.588;2023-05-07T05:05:21;21.53;;;13.77;;
5608;SDS011;2826;51.354;9.588;2023-05-07T05:07:51;22.07;;;13.67;;
5608;SDS011;2826;51.354;9.588;2023-05-07T05:10:18;23.83;;;14.90;;
5608;SDS011;2826;51.354;9.588;2023-05-07T05:12:45;25.97;;;14.03;;
5608;SDS011;2826;51.354;9.588;2023-05-07T05:15:12;22.57;;;13.90;;
5608;SDS011;2826;51.354;9.588;2023-05-07T05:17:38;22.47;;;13.93;;
5608;SDS011;2826;51.354;9.588;2023-05-07T05:20:08;24.50;;;14.57;;
5608;SDS011;2826;51.354;9.588;2023-05-07T05:22:37;26.33;;;13.70;;
5608;SDS011;2826;51.354;9.588;2023-05-07T05:25:04;22.20;;;13.47;;
5608;SDS011;2826;51.354;9.588;2023-05-07T05:27:31;23.57;;;13.80;;
5608;SDS011;2826;51.354;9.588;2023-05-07T05:29:58;24.33;;;13.87;;
5608;SDS011;2826;51.354;9.588;2023-05-07T05:32:25;22.03;;;13.20;;
5608;SDS011;2826;51.354;9.588;2023-05-07T05:34:54;22.20;;;12.97;;
5608;SDS011;2826;51.354;9.588;2023-05-07T05:37:22;21.37;;;13.43;;
5608;SDS011;2826;51.354;9.588;2023-05-07T05:39:50;21.90;;;12.40;;
5608;SDS011;2826;51.354;9.588;2023-05-07T05:42:18;20.27;;;11.97;;
5608;SDS011;2826;51.354;9.588;2023-05-07T05:44:45;23.17;;;13.53;;
5608;SDS011;2826;51.354;9.588;2023-05-07T05:47:12;20.63;;;13.40;;
5608;SDS011;2826;51.354;9.588;2023-05-07T05:49:40;21.30;;;13.47;;
5608;SDS011;2826;51.354;9.588;2023-05-07T05:52:11;20.00;;;12.93;;
5608;SDS011;2826;51.354;9.588;2023-05-07T05:54:40;19.90;;;12.83;;
5608;SDS011;2826;51.354;9.588;2023-05-07T05:57:07;18.70;;;12.40;;
5608;SDS011;2826;51.354;9.588;2023-05-07T05:59:34;24.37;;;14.27;;
5608;SDS011;2826;51.354;9.588;2023-05-07T06:02:01;21.73;;;13.50;;
5608;SDS011;2826;51.354;9.588;2023-05-07T06:04:28;22.60;;;14.50;;
5608;SDS011;2826;51.354;9.588;2023-05-07T06:06:55;23.77;;;14.10;;
5608;SDS011;2826;51.354;9.588;2023-05-07T06:09:23;22.47;;;14.47;;
5608;SDS011;2826;51.354;9.588;2023-05-07T06:11:51;24.37;;;14.10;;
5608;SDS011;2826;51.354;9.588;2023-05-07T06:14:18;20.00;;;12.40;;
5608;SDS011;2826;51.354;9.588;2023-05-07T06:16:45;19.90;;;13.23;;
5608;SDS011;2826;51.354;9.588;2023-05-07T06:19:11;22.00;;;12.90;;
5608;SDS011;2826;51.354;9.588;2023-05-07T06:21:39;25.67;;;14.53;;
5608;SDS011;2826;51.354;9.588;2023-05-07T06:24:06;22.10;;;13.30;;
5608;SDS011;2826;51.354;9.588;2023-05-07T06:26:34;23.30;;;12.83;;
5608;SDS011;2826;51.354;9.588;2023-05-07T06:29:02;23.13;;;14.00;;
5608;SDS011;2826;51.354;9.588;2023-05-07T06:31:29;22.77;;;13.43;;
5608;SDS011;2826;51.354;9.588;2023-05-07T06:34:03;23.60;;;14.20;;
5608;SDS011;2826;51.354;9.588;2023-05-07T06:36:34;20.27;;;13.23;;
5608;SDS011;2826;51.354;9.588;2023-05-07T06:39:09;22.93;;;14.47;;
5608;SDS011;2826;51.354;9.588;2023-05-07T06:41:35;21.53;;;13.53;;
5608;SDS011;2826;51.354;9.588;2023-05-07T06:44:09;20.70;;;13.40;;
5608;SDS011;2826;51.354;9.588;2023-05-07T06:46:41;22.30;;;13.63;;
5608;SDS011;2826;51.354;9.588;2023-05-07T06:49:08;20.97;;;12.73;;
5608;SDS011;2826;51.354;9.588;2023-05-07T06:51:35;19.27;;;12.43;;
5608;SDS011;2826;51.354;9.588;2023-05-07T06:54:02;22.40;;;13.70;;
5608;SDS011;2826;51.354;9.588;2023-05-07T06:56:31;24.33;;;14.17;;
5608;SDS011;2826;51.354;9.588;2023-05-07T06:58:59;21.80;;;13.20;;
5608;SDS011;2826;51.354;9.588;2023-05-07T07:01:30;24.73;;;13.53;;
5608;SDS011;2826;51.354;9.588;2023-05-07T07:03:59;19.17;;;12.53;;
5608;SDS011;2826;51.354;9.588;2023-05-07T07:06:27;22.73;;;14.30;;
5608;SDS011;2826;51.354;9.588;2023-05-07T07:08:56;22.60;;;13.20;;
5608;SDS011;2826;51.354;9.588;2023-05-07T07:11:23;20.87;;;12.80;;
5608;SDS011;2826;51.354;9.588;2023-05-07T07:13:50;21.37;;;13.27;;
5608;SDS011;2826;51.354;9.588;2023-05-07T07:16:19;19.20;;;12.00;;
5608;SDS011;2826;51.354;9.588;2023-05-07T07:18:48;23.40;;;13.40;;
5608;SDS011;2826;51.354;9.588;2023-05-07T07:21:15;23.20;;;13.40;;
5608;SDS011;2826;51.354;9.588;2023-05-07T07:23:41;19.60;;;12.63;;
5608;SDS011;2826;51.354;9.588;2023-05-07T07:26:08;19.80;;;13.35;;
5608;SDS011;2826;51.354;9.588;2023-05-07T07:28:35;21.60;;;12.27;;
5608;SDS011;2826;51.354;9.588;2023-05-07T07:31:01;17.03;;;11.77;;
5608;SDS011;2826;51.354;9.588;2023-05-07T07:33:29;19.07;;;11.90;;
5608;SDS011;2826;51.354;9.588;2023-05-07T07:35:57;17.07;;;11.73;;
5608;SDS011;2826;51.354;9.588;2023-05-07T07:38:24;21.20;;;12.40;;
5608;SDS011;2826;51.354;9.588;2023-05-07T07:40:50;18.40;;;12.80;;
5608;SDS011;2826;51.354;9.588;2023-05-07T07:43:17;18.73;;;12.10;;
5608;SDS011;2826;51.354;9.588;2023-05-07T07:45:44;16.60;;;10.67;;
5608;SDS011;2826;51.354;9.588;2023-05-07T07:48:11;15.20;;;10.97;;
5608;SDS011;2826;51.354;9.588;2023-05-07T07:50:37;18.17;;;12.20;;
5608;SDS011;2826;51.354;9.588;2023-05-07T07:53:07;17.20;;;11.73;;
5608;SDS011;2826;51.354;9.588;2023-05-07T07:55:37;16.07;;;10.80;;
5608;SDS011;2826;51.354;9.588;2023-05-07T07:58:05;15.43;;;10.90;;
5608;SDS011;2826;51.354;9.588;2023-05-07T08:00:33;16.23;;;10.00;;
5608;SDS011;2826;51.354;9.588;2023-05-07T08:02:59;17.93;;;10.70;;
5608;SDS011;2826;51.354;9.588;2023-05-07T08:05:32;19.07;;;10.40;;
5608;SDS011;2826;51.354;9.588;2023-05-07T08:07:59;12.07;;;9.80;;
5608;SDS011;2826;51.354;9.588;2023-05-07T08:10:31;13.70;;;9.20;;
5608;SDS011;2826;51.354;9.588;2023-05-07T08:13:04;14.77;;;10.27;;
5608;SDS011;2826;51.354;9.588;2023-05-07T08:15:32;13.37;;;9.70;;
5608;SDS011;2826;51.354;9.588;2023-05-07T08:17:59;12.27;;;8.87;;
5608;SDS011;2826;51.354;9.588;2023-05-07T08:20:27;16.53;;;9.60;;
5608;SDS011;2826;51.354;9.588;2023-05-07T08:22:55;15.50;;;9.93;;
5608;SDS011;2826;51.354;9.588;2023-05-07T08:25:22;12.00;;;8.03;;
5608;SDS011;2826;51.354;9.588;2023-05-07T08:27:51;12.57;;;8.40;;
5608;SDS011;2826;51.354;9.588;2023-05-07T08:30:18;11.97;;;7.80;;
5608;SDS011;2826;51.354;9.588;2023-05-07T08:32:44;11.43;;;7.40;;
5608;SDS011;2826;51.354;9.588;2023-05-07T08:35:11;10.57;;;8.27;;
5608;SDS011;2826;51.354;9.588;2023-05-07T08:37:37;10.30;;;7.40;;
5608;SDS011;2826;51.354;9.588;2023-05-07T08:40:05;10.47;;;6.77;;
5608;SDS011;2826;51.354;9.588;2023-05-07T08:42:35;8.33;;;6.90;;
5608;SDS011;2826;51.354;9.588;2023-05-07T08:45:04;7.93;;;6.60;;
5608;SDS011;2826;51.354;9.588;2023-05-07T08:47:39;8.43;;;6.60;;
5608;SDS011;2826;51.354;9.588;2023-05-07T08:50:09;14.43;;;7.10;;
5608;SDS011;2826;51.354;9.588;2023-05-07T08:52:37;7.37;;;6.30;;
5608;SDS011;2826;51.354;9.588;2023-05-07T08:55:04;8.90;;;6.03;;
5608;SDS011;2826;51.354;9.588;2023-05-07T08:57:34;8.43;;;5.87;;
5608;SDS011;2826;51.354;9.588;2023-05-07T09:00:02;5.83;;;5.10;;
5608;SDS011;2826;51.354;9.588;2023-05-07T09:02:31;6.43;;;5.27;;
5608;SDS011;2826;51.354;9.588;2023-05-07T09:04:58;5.90;;;5.00;;
5608;SDS011;2826;51.354;9.588;2023-05-07T09:07:25;5.40;;;4.50;;
5608;SDS011;2826;51.354;9.588;2023-05-07T09:09:52;6.67;;;5.67;;
5608;SDS011;2826;51.354;9.588;2023-05-07T09:12:20;5.83;;;4.60;;
5608;SDS011;2826;51.354;9.588;2023-05-07T09:14:47;6.03;;;4.87;;
5608;SDS011;2826;51.354;9.588;2023-05-07T09:17:14;7.83;;;4.90;;
5608;SDS011;2826;51.354;9.588;2023-05-07T09:19:43;4.07;;;3.67;;
5608;SDS011;2826;51.354;9.588;2023-05-07T09:22:11;6.53;;;4.90;;
5608;SDS011;2826;51.354;9.588;2023-05-07T09:24:51;5.30;;;4.60;;
5608;SDS011;2826;51.354;9.588;2023-05-07T09:27:22;5.60;;;4.77;;
5608;SDS011;2826;51.354;9.588;2023-05-07T09:29:49;4.53;;;4.03;;
5608;SDS011;2826;51.354;9.588;2023-05-07T09:32:16;4.47;;;4.03;;
5608;SDS011;2826;51.354;9.588;2023-05-07T09:34:44;5.47;;;3.83;;
5608;SDS011;2826;51.354;9.588;2023-05-07T09:37:13;4.40;;;4.00;;
5608;SDS011;2826;51.354;9.588;2023-05-07T09:39:40;5.47;;;4.40;;
5608;SDS011;2826;51.354;9.588;2023-05-07T09:42:08;7.23;;;4.10;;
5608;SDS011;2826;51.354;9.588;2023-05-07T09:44:36;4.47;;;3.70;;
5608;SDS011;2826;51.354;9.588;2023-05-07T09:47:08;6.47;;;4.00;;
5608;SDS011;2826;51.354;9.588;2023-05-07T09:49:40;4.80;;;3.70;;
5608;SDS011;2826;51.354;9.588;2023-05-07T09:52:17;4.57;;;3.63;;
5608;SDS011;2826;51.354;9.588;2023-05-07T09:54:49;4.30;;;3.83;;
5608;SDS011;2826;51.354;9.588;2023-05-07T09:57:20;4.40;;;3.80;;
5608;SDS011;2826;51.354;9.588;2023-05-07T09:59:54;5.07;;;3.73;;
5608;SDS011;2826;51.354;9.588;2023-05-07T10:02:23;4.63;;;4.13;;
5608;SDS011;2826;51.354;9.588;2023-05-07T10:04:55;4.40;;;4.00;;
5608;SDS011;2826;51.354;9.588;2023-05-07T10:07:28;4.97;;;4.37;;
5608;SDS011;2826;51.354;9.588;2023-05-07T10:10:01;6.73;;;4.33;;
5608;SDS011;2826;51.354;9.588;2023-05-07T10:12:35;6.23;;;5.00;;
5608;SDS011;2826;51.354;9.588;2023-05-07T10:15:08;5.80;;;4.60;;
5608;SDS011;2826;51.354;9.588;2023-05-07T10:17:37;6.00;;;4.40;;
5608;SDS011;2826;51.354;9.588;2023-05-07T10:20:06;5.20;;;4.20;;
5608;SDS011;2826;51.354;9.588;2023-05-07T10:22:39;6.63;;;4.67;;
5608;SDS011;2826;51.354;9.588;2023-05-07T10:25:16;5.70;;;4.63;;
5608;SDS011;2826;51.354;9.588;2023-05-07T10:27:45;4.70;;;4.20;;
5608;SDS011;2826;51.354;9.588;2023-05-07T10:30:16;5.03;;;4.10;;
5608;SDS011;2826;51.354;9.588;2023-05-07T10:32:55;5.73;;;5.03;;
5608;SDS011;2826;51.354;9.588;2023-05-07T10:35:31;7.90;;;5.00;;
5608;SDS011;2826;51.354;9.588;2023-05-07T10:38:04;6.53;;;5.00;;
5608;SDS011;2826;51.354;9.588;2023-05-07T10:40:34;7.50;;;5.40;;
5608;SDS011;2826;51.354;9.588;2023-05-07T10:43:03;8.47;;;5.40;;
5608;SDS011;2826;51.354;9.588;2023-05-07T10:45:36;6.40;;;4.90;;
5608;SDS011;2826;51.354;9.588;2023-05-07T10:48:09;7.87;;;5.43;;
5608;SDS011;2826;51.354;9.588;2023-05-07T10:50:38;7.77;;;6.07;;
5608;SDS011;2826;51.354;9.588;2023-05-07T10:56:25;8.50;;;6.10;;
5608;SDS011;2826;51.354;9.588;2023-05-07T11:02:18;7.37;;;5.50;;
5608;SDS011;2826;51.354;9.588;2023-05-07T11:07:45;6.43;;;5.40;;
5608;SDS011;2826;51.354;9.588;2023-05-07T11:10:22;6.77;;;5.90;;
5608;SDS011;2826;51.354;9.588;2023-05-07T11:13:17;8.20;;;6.30;;
5608;SDS011;2826;51.354;9.588;2023-05-07T11:15:47;7.50;;;6.20;;
5608;SDS011;2826;51.354;9.588;2023-05-07T11:18:38;9.60;;;7.30;;
5608;SDS011;2826;51.354;9.588;2023-05-07T11:21:13;11.70;;;7.30;;
5608;SDS011;2826;51.354;9.588;2023-05-07T11:24:05;10.07;;;6.60;;
5608;SDS011;2826;51.354;9.588;2023-05-07T11:26:49;7.40;;;6.50;;
5608;SDS011;2826;51.354;9.588;2023-05-07T11:29:19;8.60;;;6.83;;
5608;SDS011;2826;51.354;9.588;2023-05-07T11:31:48;8.83;;;6.90;;
5608;SDS011;2826;51.354;9.588;2023-05-07T11:34:20;7.63;;;6.70;;
5608;SDS011;2826;51.354;9.588;2023-05-07T11:36:48;8.37;;;6.90;;
5608;SDS011;2826;51.354;9.588;2023-05-07T11:39:26;11.17;;;6.70;;
5608;SDS011;2826;51.354;9.588;2023-05-07T11:41:54;11.17;;;7.17;;
5608;SDS011;2826;51.354;9.588;2023-05-07T11:44:21;12.90;;;8.43;;
5608;SDS011;2826;51.354;9.588;2023-05-07T11:46:48;10.13;;;7.30;;
5608;SDS011;2826;51.354;9.588;2023-05-07T11:49:16;8.93;;;7.03;;
5608;SDS011;2826;51.354;9.588;2023-05-07T11:51:43;9.67;;;7.53;;
5608;SDS011;2826;51.354;9.588;2023-05-07T11:54:11;9.63;;;7.63;;
5608;SDS011;2826;51.354;9.588;2023-05-07T11:56:42;9.47;;;8.37;;
5608;SDS011;2826;51.354;9.588;2023-05-07T11:59:09;10.70;;;7.60;;
5608;SDS011;2826;51.354;9.588;2023-05-07T12:01:36;9.50;;;8.10;;
5608;SDS011;2826;51.354;9.588;2023-05-07T12:04:03;13.40;;;7.87;;
5608;SDS011;2826;51.354;9.588;2023-05-07T12:06:30;11.60;;;9.50;;
5608;SDS011;2826;51.354;9.588;2023-05-07T12:08:56;10.83;;;8.17;;
5608;SDS011;2826;51.354;9.588;2023-05-07T12:11:23;11.40;;;8.30;;
5608;SDS011;2826;51.354;9.588;2023-05-07T12:13:51;10.60;;;8.13;;
5608;SDS011;2826;51.354;9.588;2023-05-07T12:16:21;12.50;;;9.00;;
5608;SDS011;2826;51.354;9.588;2023-05-07T12:18:49;12.90;;;9.47;;
5608;SDS011;2826;51.354;9.588;2023-05-07T12:21:18;10.40;;;8.40;;
5608;SDS011;2826;51.354;9.588;2023-05-07T12:23:45;13.73;;;8.50;;
5608;SDS011;2826;51.354;9.588;2023-05-07T12:26:12;14.93;;;8.93;;
5608;SDS011;2826;51.354;9.588;2023-05-07T12:28:38;13.03;;;9.07;;
5608;SDS011;2826;51.354;9.588;2023-05-07T12:31:05;9.93;;;7.87;;
5608;SDS011;2826;51.354;9.588;2023-05-07T12:33:34;9.80;;;8.30;;
5608;SDS011;2826;51.354;9.588;2023-05-07T12:36:05;13.13;;;8.30;;
5608;SDS011;2826;51.354;9.588;2023-05-07T12:38:37;13.33;;;9.37;;
5608;SDS011;2826;51.354;9.588;2023-05-07T12:41:06;10.70;;;8.47;;
5608;SDS011;2826;51.354;9.588;2023-05-07T12:43:33;13.33;;;8.90;;
5608;SDS011;2826;51.354;9.588;2023-05-07T12:46:00;10.87;;;8.93;;
5608;SDS011;2826;51.354;9.588;2023-05-07T12:48:28;10.87;;;8.70;;
5608;SDS011;2826;51.354;9.588;2023-05-07T12:50:56;16.23;;;9.97;;
5608;SDS011;2826;51.354;9.588;2023-05-07T12:53:27;10.20;;;8.23;;
5608;SDS011;2826;51.354;9.588;2023-05-07T12:55:54;13.00;;;8.90;;
5608;SDS011;2826;51.354;9.588;2023-05-07T12:58:24;11.30;;;9.40;;
5608;SDS011;2826;51.354;9.588;2023-05-07T13:00:52;10.97;;;8.90;;
5608;SDS011;2826;51.354;9.588;2023-05-07T13:03:22;18.63;;;9.43;;
5608;SDS011;2826;51.354;9.588;2023-05-07T13:05:50;9.70;;;8.27;;
5608;SDS011;2826;51.354;9.588;2023-05-07T13:08:29;13.13;;;9.20;;
5608;SDS011;2826;51.354;9.588;2023-05-07T13:10:57;11.20;;;9.50;;
5608;SDS011;2826;51.354;9.588;2023-05-07T13:13:28;12.57;;;10.10;;
5608;SDS011;2826;51.354;9.588;2023-05-07T13:15:55;12.07;;;9.33;;
5608;SDS011;2826;51.354;9.588;2023-05-07T13:18:22;11.53;;;8.87;;
5608;SDS011;2826;51.354;9.588;2023-05-07T13:20:50;12.90;;;8.70;;
5608;SDS011;2826;51.354;9.588;2023-05-07T13:23:17;13.90;;;9.57;;
5608;SDS011;2826;51.354;9.588;2023-05-07T13:25:45;12.37;;;10.07;;
5608;SDS011;2826;51.354;9.588;2023-05-07T13:28:12;11.20;;;9.20;;
5608;SDS011;2826;51.354;9.588;2023-05-07T13:30:39;13.40;;;8.90;;
5608;SDS011;2826;51.354;9.588;2023-05-07T13:33:06;11.10;;;8.87;;
5608;SDS011;2826;51.354;9.588;2023-05-07T13:35:32;11.40;;;8.60;;
5608;SDS011;2826;51.354;9.588;2023-05-07T13:38:00;12.20;;;9.23;;
5608;SDS011;2826;51.354;9.588;2023-05-07T13:40:26;11.00;;;8.70;;
5608;SDS011;2826;51.354;9.588;2023-05-07T13:42:56;10.90;;;8.80;;
5608;SDS011;2826;51.354;9.588;2023-05-07T13:45:23;10.60;;;8.73;;
5608;SDS011;2826;51.354;9.588;2023-05-07T13:47:51;13.70;;;8.87;;
5608;SDS011;2826;51.354;9.588;2023-05-07T13:50:18;13.20;;;8.47;;
5608;SDS011;2826;51.354;9.588;2023-05-07T13:52:45;11.83;;;9.67;;
5608;SDS011;2826;51.354;9.588;2023-05-07T13:55:15;9.90;;;8.40;;
5608;SDS011;2826;51.354;9.588;2023-05-07T13:57:42;11.53;;;9.13;;
5608;SDS011;2826;51.354;9.588;2023-05-07T14:00:11;15.23;;;8.70;;
5608;SDS011;2826;51.354;9.588;2023-05-07T14:02:41;13.43;;;8.87;;
5608;SDS011;2826;51.354;9.588;2023-05-07T14:05:08;10.70;;;8.37;;
5608;SDS011;2826;51.354;9.588;2023-05-07T14:07:35;10.90;;;9.23;;
5608;SDS011;2826;51.354;9.588;2023-05-07T14:10:02;11.53;;;9.10;;
5608;SDS011;2826;51.354;9.588;2023-05-07T14:12:29;10.63;;;9.17;;
5608;SDS011;2826;51.354;9.588;2023-05-07T14:14:56;16.10;;;8.37;;
5608;SDS011;2826;51.354;9.588;2023-05-07T14:17:24;12.60;;;9.67;;
5608;SDS011;2826;51.354;9.588;2023-05-07T14:19:52;11.60;;;9.10;;
5608;SDS011;2826;51.354;9.588;2023-05-07T14:22:19;11.27;;;9.13;;
5608;SDS011;2826;51.354;9.588;2023-05-07T14:24:46;11.87;;;8.80;;
5608;SDS011;2826;51.354;9.588;2023-05-07T14:27:12;11.47;;;8.60;;
5608;SDS011;2826;51.354;9.588;2023-05-07T14:29:39;9.60;;;8.50;;
5608;SDS011;2826;51.354;9.588;2023-05-07T14:32:05;10.80;;;8.37;;
5608;SDS011;2826;51.354;9.588;2023-05-07T14:34:33;12.20;;;8.40;;
5608;SDS011;2826;51.354;9.588;2023-05-07T14:37:00;9.20;;;7.80;;
5608;SDS011;2826;51.354;9.588;2023-05-07T14:39:27;8.80;;;7.60;;
5608;SDS011;2826;51.354;9.588;2023-05-07T14:41:55;11.50;;;8.77;;
5608;SDS011;2826;51.354;9.588;2023-05-07T14:44:23;9.60;;;7.90;;
5608;SDS011;2826;51.354;9.588;2023-05-07T14:46:50;10.60;;;7.83;;
5608;SDS011;2826;51.354;9.588;2023-05-07T14:49:17;8.53;;;7.40;;
5608;SDS011;2826;51.354;9.588;2023-05-07T14:51:45;8.23;;;7.33;;
5608;SDS011;2826;51.354;9.588;2023-05-07T14:54:12;10.20;;;7.40;;
5608;SDS011;2826;51.354;9.588;2023-05-07T14:56:40;9.30;;;8.03;;
5608;SDS011;2826;51.354;9.588;2023-05-07T14:59:07;9.30;;;7.67;;
5608;SDS011;2826;51.354;9.588;2023-05-07T15:01:35;11.00;;;8.57;;
5608;SDS011;2826;51.354;9.588;2023-05-07T15:04:02;8.80;;;7.23;;
5608;SDS011;2826;51.354;9.588;2023-05-07T15:06:29;9.43;;;8.00;;
5608;SDS011;2826;51.354;9.588;2023-05-07T15:08:57;10.37;;;7.80;;
5608;SDS011;2826;51.354;9.588;2023-05-07T15:11:24;10.63;;;8.30;;
5608;SDS011;2826;51.354;9.588;2023-05-07T15:13:51;10.63;;;7.90;;
5608;SDS011;2826;51.354;9.588;2023-05-07T15:16:18;10.53;;;7.90;;